M/V Crosby Hustler — WDA3941 — position and weather

sailwx.info

Track history (hours):
 
Tides and Currents Weather Stations Pressure Air Temp Water Temp Dewpoint Dewpoint Depression Visibility Wind Speed Wind Dir Waves Ship Positions

M/V Crosby Hustler

More information available from US FCC via Universal Licensing System and Coast Guard Vessel Documentation Center.

Last reported at 2014-Jul-24 16:30 UTC. Time now 2014-Jul-24 17:00 UTC.
Position N 29°48' W 095°04'.

Length 18 m; draft 9 m.

Type: Tug. MMSI: 366804030.

Date/timePositionNaut miles runAvg speedWind from/ knotsBaromVisibWave heightAir tempDewpointWater temp
2014-Jul-24 16:30N 29°48' W 095°04'2 1.2
2014-Jul-24 14:30N 29°46' W 095°06'0 0.0
2014-Jul-24 13:18N 29°46' W 095°06'0 0.0
2014-Jul-24 12:30N 29°46' W 095°06'0 0.0
2014-Jul-24 11:30N 29°46' W 095°06'0 0.0
2014-Jul-24 10:33N 29°46' W 095°06'0 0.0
2014-Jul-24 09:06N 29°46' W 095°06'0 0.0
2014-Jul-24 08:33N 29°46' W 095°06'0 0.0
2014-Jul-24 07:33N 29°46' W 095°06'1 0.8
2014-Jul-24 06:33N 29°45' W 095°06'0 0.5
2014-Jul-24 05:33N 29°46' W 095°06'0 0.3
2014-Jul-24 04:28N 29°46' W 095°06'0 0.0
2014-Jul-24 03:31N 29°46' W 095°06'0 0.0
2014-Jul-24 02:34N 29°46' W 095°06'0 0.0
2014-Jul-24 01:33N 29°46' W 095°06'0 0.0
2014-Jul-24 00:34N 29°46' W 095°06'0 0.0
2014-Jul-23 23:34N 29°46' W 095°06'0 0.0
2014-Jul-23 22:33N 29°46' W 095°06'0 0.2
2014-Jul-23 21:31N 29°46' W 095°06'0 0.0
2014-Jul-23 20:31N 29°46' W 095°06'0 0.0
2014-Jul-23 19:31N 29°46' W 095°06'0 0.0
2014-Jul-23 18:31N 29°46' W 095°06'0 0.0
2014-Jul-23 17:31N 29°46' W 095°06'0 0.0
2014-Jul-23 16:28N 29°46' W 095°06'0 0.0
2014-Jul-23 15:31N 29°46' W 095°06'1 1.4
2014-Jul-23 14:33N 29°46' W 095°05'1 1.3
2014-Jul-23 13:33N 29°48' W 095°04'0 0.0
2014-Jul-23 12:33N 29°48' W 095°04'0 0.0
2014-Jul-23 11:33N 29°48' W 095°04'0 0.0
2014-Jul-23 10:30N 29°48' W 095°04'1 0.8
2014-Jul-23 09:33N 29°47' W 095°04'5 4.9
2014-Jul-23 08:33N 29°44' W 095°09'5 4.8
2014-Jul-23 07:31N 29°43' W 095°15'0 0.0
2014-Jul-23 06:31N 29°43' W 095°15'0 0.0
2014-Jul-23 05:31N 29°43' W 095°15'0 0.0
2014-Jul-23 04:31N 29°43' W 095°15'0 0.0
2014-Jul-23 03:31N 29°43' W 095°15'0 0.0
2014-Jul-23 02:31N 29°43' W 095°15'0 0.0
2014-Jul-23 01:31N 29°43' W 095°15'0 0.0
2014-Jul-23 00:31N 29°43' W 095°15'0 0.0
2014-Jul-22 23:31N 29°43' W 095°15'0 0.0
2014-Jul-22 22:31N 29°43' W 095°15'0 0.0
2014-Jul-22 21:31N 29°43' W 095°15'0 0.0
2014-Jul-22 20:31N 29°43' W 095°15'0 0.0
2014-Jul-22 19:31N 29°43' W 095°15'0 0.0
2014-Jul-22 18:31N 29°43' W 095°15'0 0.0
2014-Jul-22 17:31N 29°43' W 095°15'0 0.0
2014-Jul-22 16:31N 29°43' W 095°15'0 0.0
2014-Jul-22 15:31N 29°43' W 095°15'0 0.0
2014-Jul-22 14:31N 29°43' W 095°15'0 0.0
2014-Jul-22 13:31N 29°43' W 095°15'0 0.0
2014-Jul-22 12:32N 29°43' W 095°15'0 0.0
2014-Jul-22 11:32N 29°43' W 095°15'0 0.0
2014-Jul-22 10:32N 29°43' W 095°15'0 0.0
2014-Jul-22 09:32N 29°43' W 095°15'0 0.0
2014-Jul-22 08:32N 29°43' W 095°15'0 0.0
2014-Jul-22 07:32N 29°43' W 095°15'0 0.0
2014-Jul-22 06:32N 29°43' W 095°15'0 0.0
2014-Jul-22 05:32N 29°43' W 095°15'0 0.0
2014-Jul-22 04:32N 29°43' W 095°15'0 0.0
2014-Jul-22 03:32N 29°43' W 095°15'0 0.0
2014-Jul-22 02:32N 29°43' W 095°15'2 1.9
2014-Jul-22 01:33N 29°44' W 095°13'4 4.2
2014-Jul-22 00:33N 29°44' W 095°08'3 2.5
2014-Jul-21 23:32N 29°46' W 095°06'1 0.5
2014-Jul-21 22:30N 29°47' W 095°06'0 0.0
2014-Jul-21 21:33N 29°47' W 095°06'0 0.0
2014-Jul-21 20:33N 29°47' W 095°06'0 0.0
2014-Jul-21 20:18N 29°47' W 095°06'0 0.0
2014-Jul-21 19:33N 29°47' W 095°06'0 0.0
2014-Jul-21 18:33N 29°47' W 095°06'0 0.0
2014-Jul-21 17:33N 29°47' W 095°06'0 0.0
2014-Jul-21 16:33N 29°47' W 095°06'0 0.0
2014-Jul-21 15:33N 29°47' W 095°06'0 0.0
2014-Jul-21 14:33N 29°47' W 095°06'0 0.0
2014-Jul-21 13:33N 29°47' W 095°06'0 0.0
2014-Jul-21 12:33N 29°47' W 095°06'0 0.0
2014-Jul-21 11:33N 29°47' W 095°06'0 0.0
2014-Jul-21 10:33N 29°47' W 095°06'0 0.0
2014-Jul-21 09:30N 29°47' W 095°06'0 0.0
2014-Jul-21 08:33N 29°47' W 095°06'0 0.0
2014-Jul-21 07:33N 29°47' W 095°06'0 0.0
2014-Jul-21 06:33N 29°47' W 095°06'0 0.0
2014-Jul-21 05:33N 29°47' W 095°06'0 0.0
2014-Jul-21 04:30N 29°47' W 095°06'0 0.0
2014-Jul-21 03:30N 29°47' W 095°06'0 0.0
2014-Jul-21 02:33N 29°47' W 095°06'0 0.0
2014-Jul-21 01:33N 29°47' W 095°06'0 0.0
2014-Jul-21 00:33N 29°47' W 095°06'0 0.0
2014-Jul-20 23:33N 29°47' W 095°06'0 0.0
2014-Jul-20 22:33N 29°47' W 095°06'0 0.0
2014-Jul-20 21:33N 29°47' W 095°06'0 0.0
2014-Jul-20 20:33N 29°47' W 095°06'0 0.0
2014-Jul-20 19:33N 29°47' W 095°06'0 0.0
2014-Jul-20 18:33N 29°47' W 095°06'0 0.0
2014-Jul-20 17:33N 29°47' W 095°06'0 0.0
2014-Jul-20 16:30N 29°47' W 095°06'0 0.0
2014-Jul-20 15:33N 29°47' W 095°06'0 0.0
2014-Jul-20 14:30N 29°47' W 095°06'0 0.0
2014-Jul-20 13:33N 29°47' W 095°06'0 0.0
2014-Jul-20 12:33N 29°47' W 095°06'0 0.0
2014-Jul-20 11:33N 29°47' W 095°06'0 0.0
2014-Jul-20 10:33N 29°47' W 095°06'0 0.0
2014-Jul-20 09:33N 29°47' W 095°06'0 0.0
2014-Jul-20 08:33N 29°47' W 095°06'0 0.0
2014-Jul-20 07:33N 29°47' W 095°06'0 0.0
2014-Jul-20 06:33N 29°47' W 095°06'0 0.0
2014-Jul-20 05:33N 29°47' W 095°06'0 0.0
2014-Jul-20 04:33N 29°47' W 095°06'0 0.0
2014-Jul-20 03:33N 29°47' W 095°06'0 0.0
2014-Jul-20 02:33N 29°47' W 095°06'0 0.0
2014-Jul-20 01:33N 29°47' W 095°06'0 0.0
2014-Jul-20 00:33N 29°47' W 095°06'0 0.0
2014-Jul-19 23:33N 29°47' W 095°06'0 0.0
2014-Jul-19 22:33N 29°47' W 095°06'0 0.0
2014-Jul-19 21:30N 29°47' W 095°06'0 0.0
2014-Jul-19 20:33N 29°47' W 095°06'0 0.0
2014-Jul-19 19:30N 29°47' W 095°06'0 0.0
2014-Jul-19 18:33N 29°47' W 095°06'0 0.0
2014-Jul-19 17:33N 29°47' W 095°06'0 0.0
2014-Jul-19 16:33N 29°47' W 095°06'0 0.0
2014-Jul-19 15:33N 29°47' W 095°06'0 0.0
2014-Jul-19 14:32N 29°47' W 095°06'0 0.0
2014-Jul-19 13:32N 29°47' W 095°06'0 0.0
2014-Jul-19 12:32N 29°47' W 095°06'0 0.0
2014-Jul-19 11:29N 29°47' W 095°06'0 0.0
2014-Jul-19 10:32N 29°47' W 095°06'0 0.0
2014-Jul-19 09:23N 29°47' W 095°06'0 0.0
2014-Jul-19 08:32N 29°47' W 095°06'0 0.0
2014-Jul-19 07:32N 29°47' W 095°06'0 0.0
2014-Jul-19 06:32N 29°47' W 095°06'0 0.0
2014-Jul-19 05:32N 29°47' W 095°06'0 0.0
2014-Jul-19 04:32N 29°47' W 095°06'0 0.0
2014-Jul-19 03:32N 29°47' W 095°06'0 0.1
2014-Jul-19 02:33N 29°47' W 095°06'1 0.5
2014-Jul-19 01:33N 29°46' W 095°06'4 4.3
2014-Jul-19 00:33N 29°44' W 095°02'5 4.9
2014-Jul-18 23:33N 29°40' W 094°58'6 5.5
2014-Jul-18 22:33N 29°35' W 094°56'5 5.2
2014-Jul-18 21:33N 29°31' W 094°53'5 5.0
2014-Jul-18 20:32N 29°26' W 094°50'9 4.0
2014-Jul-18 18:13N 29°17' W 094°54'3 4.8
2014-Jul-18 17:33N 29°17' W 094°57'14 3.4
2014-Jul-18 13:23N 29°13' W 095°13'0 0.0
2014-Jul-18 00:26N 29°13' W 095°13'0 0.0
2014-Jul-17 23:11N 29°13' W 095°13'0 0.0
2014-Jul-17 22:17N 29°13' W 095°13'0 0.0
2014-Jul-17 21:26N 29°13' W 095°13'0 0.0
2014-Jul-17 20:32N 29°13' W 095°13'0 0.0
2014-Jul-17 19:32N 29°13' W 095°13'0 0.0
2014-Jul-17 18:29N 29°13' W 095°13'0 0.0
2014-Jul-17 16:05N 29°13' W 095°13'0 0.0
2014-Jul-17 15:32N 29°13' W 095°13'0 0.0
2014-Jul-17 14:32N 29°13' W 095°13'0 0.0
2014-Jul-17 12:17N 29°13' W 095°13'0 0.0
2014-Jul-17 00:08N 29°13' W 095°13'0 0.0
2014-Jul-16 23:32N 29°13' W 095°13'0 0.0
2014-Jul-16 19:14N 29°13' W 095°13'0 0.0
2014-Jul-16 18:32N 29°13' W 095°13'0 0.0
2014-Jul-16 17:23N 29°13' W 095°13'0 0.0
2014-Jul-16 16:32N 29°13' W 095°13'0 0.0
2014-Jul-16 15:32N 29°13' W 095°13'0 0.0
2014-Jul-16 14:30N 29°13' W 095°13'0 0.0
2014-Jul-16 13:30N 29°13' W 095°13'0 0.0
2014-Jul-16 12:30N 29°13' W 095°13'  
Track history (hours):
 
Tides and Currents Weather Stations Pressure Air Temp Water Temp Dewpoint Dewpoint Depression Visibility Wind Speed Wind Dir Waves Ship Positions

M/V Crosby Hustler

More information available from US FCC via Universal Licensing System and Coast Guard Vessel Documentation Center.

Last reported at 2014-Jul-24 16:30 UTC. Time now 2014-Jul-24 17:00 UTC.
Position N 29°48' W 095°04'.

Length 18 m; draft 9 m.

Type: Tug. MMSI: 366804030.

Date/timePositionNaut miles runAvg speedWind from/ knotsBaromVisibWave heightAir tempDewpointWater temp
2014-Jul-24 16:30N 29°48' W 095°04'2 1.2
2014-Jul-24 14:30N 29°46' W 095°06'0 0.0
2014-Jul-24 13:18N 29°46' W 095°06'0 0.0
2014-Jul-24 12:30N 29°46' W 095°06'0 0.0
2014-Jul-24 11:30N 29°46' W 095°06'0 0.0
2014-Jul-24 10:33N 29°46' W 095°06'0 0.0
2014-Jul-24 09:06N 29°46' W 095°06'0 0.0
2014-Jul-24 08:33N 29°46' W 095°06'0 0.0
2014-Jul-24 07:33N 29°46' W 095°06'1 0.8
2014-Jul-24 06:33N 29°45' W 095°06'0 0.5
2014-Jul-24 05:33N 29°46' W 095°06'0 0.3
2014-Jul-24 04:28N 29°46' W 095°06'0 0.0
2014-Jul-24 03:31N 29°46' W 095°06'0 0.0
2014-Jul-24 02:34N 29°46' W 095°06'0 0.0
2014-Jul-24 01:33N 29°46' W 095°06'0 0.0
2014-Jul-24 00:34N 29°46' W 095°06'0 0.0
2014-Jul-23 23:34N 29°46' W 095°06'0 0.0
2014-Jul-23 22:33N 29°46' W 095°06'0 0.2
2014-Jul-23 21:31N 29°46' W 095°06'0 0.0
2014-Jul-23 20:31N 29°46' W 095°06'0 0.0
2014-Jul-23 19:31N 29°46' W 095°06'0 0.0
2014-Jul-23 18:31N 29°46' W 095°06'0 0.0
2014-Jul-23 17:31N 29°46' W 095°06'0 0.0
2014-Jul-23 16:28N 29°46' W 095°06'0 0.0
2014-Jul-23 15:31N 29°46' W 095°06'1 1.4
2014-Jul-23 14:33N 29°46' W 095°05'1 1.3
2014-Jul-23 13:33N 29°48' W 095°04'0 0.0
2014-Jul-23 12:33N 29°48' W 095°04'0 0.0
2014-Jul-23 11:33N 29°48' W 095°04'0 0.0
2014-Jul-23 10:30N 29°48' W 095°04'1 0.8
2014-Jul-23 09:33N 29°47' W 095°04'5 4.9
2014-Jul-23 08:33N 29°44' W 095°09'5 4.8
2014-Jul-23 07:31N 29°43' W 095°15'0 0.0
2014-Jul-23 06:31N 29°43' W 095°15'0 0.0
2014-Jul-23 05:31N 29°43' W 095°15'0 0.0
2014-Jul-23 04:31N 29°43' W 095°15'0 0.0
2014-Jul-23 03:31N 29°43' W 095°15'0 0.0
2014-Jul-23 02:31N 29°43' W 095°15'0 0.0
2014-Jul-23 01:31N 29°43' W 095°15'0 0.0
2014-Jul-23 00:31N 29°43' W 095°15'0 0.0
2014-Jul-22 23:31N 29°43' W 095°15'0 0.0
2014-Jul-22 22:31N 29°43' W 095°15'0 0.0
2014-Jul-22 21:31N 29°43' W 095°15'0 0.0
2014-Jul-22 20:31N 29°43' W 095°15'0 0.0
2014-Jul-22 19:31N 29°43' W 095°15'0 0.0
2014-Jul-22 18:31N 29°43' W 095°15'0 0.0
2014-Jul-22 17:31N 29°43' W 095°15'0 0.0
2014-Jul-22 16:31N 29°43' W 095°15'0 0.0
2014-Jul-22 15:31N 29°43' W 095°15'0 0.0
2014-Jul-22 14:31N 29°43' W 095°15'0 0.0
2014-Jul-22 13:31N 29°43' W 095°15'0 0.0
2014-Jul-22 12:32N 29°43' W 095°15'0 0.0
2014-Jul-22 11:32N 29°43' W 095°15'0 0.0
2014-Jul-22 10:32N 29°43' W 095°15'0 0.0
2014-Jul-22 09:32N 29°43' W 095°15'0 0.0
2014-Jul-22 08:32N 29°43' W 095°15'0 0.0
2014-Jul-22 07:32N 29°43' W 095°15'0 0.0
2014-Jul-22 06:32N 29°43' W 095°15'0 0.0
2014-Jul-22 05:32N 29°43' W 095°15'0 0.0
2014-Jul-22 04:32N 29°43' W 095°15'0 0.0
2014-Jul-22 03:32N 29°43' W 095°15'0 0.0
2014-Jul-22 02:32N 29°43' W 095°15'2 1.9
2014-Jul-22 01:33N 29°44' W 095°13'4 4.2
2014-Jul-22 00:33N 29°44' W 095°08'3 2.5
2014-Jul-21 23:32N 29°46' W 095°06'1 0.5
2014-Jul-21 22:30N 29°47' W 095°06'0 0.0
2014-Jul-21 21:33N 29°47' W 095°06'0 0.0
2014-Jul-21 20:33N 29°47' W 095°06'0 0.0
2014-Jul-21 20:18N 29°47' W 095°06'0 0.0
2014-Jul-21 19:33N 29°47' W 095°06'0 0.0
2014-Jul-21 18:33N 29°47' W 095°06'0 0.0
2014-Jul-21 17:33N 29°47' W 095°06'0 0.0
2014-Jul-21 16:33N 29°47' W 095°06'0 0.0
2014-Jul-21 15:33N 29°47' W 095°06'0 0.0
2014-Jul-21 14:33N 29°47' W 095°06'0 0.0
2014-Jul-21 13:33N 29°47' W 095°06'0 0.0
2014-Jul-21 12:33N 29°47' W 095°06'0 0.0
2014-Jul-21 11:33N 29°47' W 095°06'0 0.0
2014-Jul-21 10:33N 29°47' W 095°06'0 0.0
2014-Jul-21 09:30N 29°47' W 095°06'0 0.0
2014-Jul-21 08:33N 29°47' W 095°06'0 0.0
2014-Jul-21 07:33N 29°47' W 095°06'0 0.0
2014-Jul-21 06:33N 29°47' W 095°06'0 0.0
2014-Jul-21 05:33N 29°47' W 095°06'0 0.0
2014-Jul-21 04:30N 29°47' W 095°06'0 0.0
2014-Jul-21 03:30N 29°47' W 095°06'0 0.0
2014-Jul-21 02:33N 29°47' W 095°06'0 0.0
2014-Jul-21 01:33N 29°47' W 095°06'0 0.0
2014-Jul-21 00:33N 29°47' W 095°06'0 0.0
2014-Jul-20 23:33N 29°47' W 095°06'0 0.0
2014-Jul-20 22:33N 29°47' W 095°06'0 0.0
2014-Jul-20 21:33N 29°47' W 095°06'0 0.0
2014-Jul-20 20:33N 29°47' W 095°06'0 0.0
2014-Jul-20 19:33N 29°47' W 095°06'0 0.0
2014-Jul-20 18:33N 29°47' W 095°06'0 0.0
2014-Jul-20 17:33N 29°47' W 095°06'0 0.0
2014-Jul-20 16:30N 29°47' W 095°06'0 0.0
2014-Jul-20 15:33N 29°47' W 095°06'0 0.0
2014-Jul-20 14:30N 29°47' W 095°06'0 0.0
2014-Jul-20 13:33N 29°47' W 095°06'0 0.0
2014-Jul-20 12:33N 29°47' W 095°06'0 0.0
2014-Jul-20 11:33N 29°47' W 095°06'0 0.0
2014-Jul-20 10:33N 29°47' W 095°06'0 0.0
2014-Jul-20 09:33N 29°47' W 095°06'0 0.0
2014-Jul-20 08:33N 29°47' W 095°06'0 0.0
2014-Jul-20 07:33N 29°47' W 095°06'0 0.0
2014-Jul-20 06:33N 29°47' W 095°06'0 0.0
2014-Jul-20 05:33N 29°47' W 095°06'0 0.0
2014-Jul-20 04:33N 29°47' W 095°06'0 0.0
2014-Jul-20 03:33N 29°47' W 095°06'0 0.0
2014-Jul-20 02:33N 29°47' W 095°06'0 0.0
2014-Jul-20 01:33N 29°47' W 095°06'0 0.0
2014-Jul-20 00:33N 29°47' W 095°06'0 0.0
2014-Jul-19 23:33N 29°47' W 095°06'0 0.0
2014-Jul-19 22:33N 29°47' W 095°06'0 0.0
2014-Jul-19 21:30N 29°47' W 095°06'0 0.0
2014-Jul-19 20:33N 29°47' W 095°06'0 0.0
2014-Jul-19 19:30N 29°47' W 095°06'0 0.0
2014-Jul-19 18:33N 29°47' W 095°06'0 0.0
2014-Jul-19 17:33N 29°47' W 095°06'0 0.0
2014-Jul-19 16:33N 29°47' W 095°06'0 0.0
2014-Jul-19 15:33N 29°47' W 095°06'0 0.0
2014-Jul-19 14:32N 29°47' W 095°06'0 0.0
2014-Jul-19 13:32N 29°47' W 095°06'0 0.0
2014-Jul-19 12:32N 29°47' W 095°06'0 0.0
2014-Jul-19 11:29N 29°47' W 095°06'0 0.0
2014-Jul-19 10:32N 29°47' W 095°06'0 0.0
2014-Jul-19 09:23N 29°47' W 095°06'0 0.0
2014-Jul-19 08:32N 29°47' W 095°06'0 0.0
2014-Jul-19 07:32N 29°47' W 095°06'0 0.0
2014-Jul-19 06:32N 29°47' W 095°06'0 0.0
2014-Jul-19 05:32N 29°47' W 095°06'0 0.0
2014-Jul-19 04:32N 29°47' W 095°06'0 0.0
2014-Jul-19 03:32N 29°47' W 095°06'0 0.1
2014-Jul-19 02:33N 29°47' W 095°06'1 0.5
2014-Jul-19 01:33N 29°46' W 095°06'4 4.3
2014-Jul-19 00:33N 29°44' W 095°02'5 4.9
2014-Jul-18 23:33N 29°40' W 094°58'6 5.5
2014-Jul-18 22:33N 29°35' W 094°56'5 5.2
2014-Jul-18 21:33N 29°31' W 094°53'5 5.0
2014-Jul-18 20:32N 29°26' W 094°50'9 4.0
2014-Jul-18 18:13N 29°17' W 094°54'3 4.8
2014-Jul-18 17:33N 29°17' W 094°57'14 3.4
2014-Jul-18 13:23N 29°13' W 095°13'0 0.0
2014-Jul-18 00:26N 29°13' W 095°13'0 0.0
2014-Jul-17 23:11N 29°13' W 095°13'0 0.0
2014-Jul-17 22:17N 29°13' W 095°13'0 0.0
2014-Jul-17 21:26N 29°13' W 095°13'0 0.0
2014-Jul-17 20:32N 29°13' W 095°13'0 0.0
2014-Jul-17 19:32N 29°13' W 095°13'0 0.0
2014-Jul-17 18:29N 29°13' W 095°13'0 0.0
2014-Jul-17 16:05N 29°13' W 095°13'0 0.0
2014-Jul-17 15:32N 29°13' W 095°13'0 0.0
2014-Jul-17 14:32N 29°13' W 095°13'0 0.0
2014-Jul-17 12:17N 29°13' W 095°13'0 0.0
2014-Jul-17 00:08N 29°13' W 095°13'0 0.0
2014-Jul-16 23:32N 29°13' W 095°13'0 0.0
2014-Jul-16 19:14N 29°13' W 095°13'0 0.0
2014-Jul-16 18:32N 29°13' W 095°13'0 0.0
2014-Jul-16 17:23N 29°13' W 095°13'0 0.0
2014-Jul-16 16:32N 29°13' W 095°13'0 0.0
2014-Jul-16 15:32N 29°13' W 095°13'0 0.0
2014-Jul-16 14:30N 29°13' W 095°13'0 0.0
2014-Jul-16 13:30N 29°13' W 095°13'0 0.0
2014-Jul-16 12:30N 29°13' W 095°13'  

Dump ship's entire track history